Time;durP1;ratioP1;P1;durP2;ratioP2;P2;SDS_P1;SDS_P2;PMS_P1;PMS_P2;Temp;Humidity;BMP_temperature;BMP_pressure;BME280_temperature;BME280_humidity;BME280_pressure;Samples;Min_cycle;Max_cycle;Signal;HPM_P1;HPM_P2
2021/12/04 00:00:22;;;;;;;46.45;14.48;;;4.50;99.90;;;;;;5114410;28;20123;-75
2021/12/04 00:02:49;;;;;;;40.75;13.90;;;4.50;99.90;;;;;;5114776;28;20086;-75
2021/12/04 00:05:16;;;;;;;41.95;14.05;;;4.50;99.90;;;;;;5114670;28;20047;-76
2021/12/04 00:07:42;;;;;;;48.47;15.82;;;4.40;99.90;;;;;;5114403;28;20055;-76
2021/12/04 00:10:09;;;;;;;50.67;15.70;;;4.40;99.90;;;;;;5063536;28;20050;-75
2021/12/04 00:12:35;;;;;;;42.40;13.85;;;4.40;99.90;;;;;;5095983;28;20051;-78
2021/12/04 00:15:02;;;;;;;48.60;14.68;;;4.40;99.90;;;;;;5115091;28;20039;-77
2021/12/04 00:17:28;;;;;;;44.65;13.95;;;4.50;99.90;;;;;;5096280;28;20087;-77
2021/12/04 00:19:54;;;;;;;46.75;14.40;;;4.40;99.90;;;;;;5114749;28;20407;-75
2021/12/04 00:22:20;;;;;;;39.92;13.65;;;4.40;99.90;;;;;;5114160;28;20043;-75
2021/12/04 00:24:46;;;;;;;44.30;14.48;;;4.40;99.90;;;;;;5114049;28;20047;-76
2021/12/04 00:27:12;;;;;;;43.53;13.63;;;4.40;99.90;;;;;;5113831;28;20040;-75
2021/12/04 00:29:38;;;;;;;38.60;13.27;;;4.40;99.90;;;;;;5113984;28;20409;-75
2021/12/04 00:35:34;;;;;;;35.35;12.18;;;4.40;99.90;;;;;;5068474;28;20051;-74
2021/12/04 00:51:12;;;;;;;36.28;12.45;;;4.50;99.90;;;;;;5113715;28;20130;-75
2021/12/04 00:53:38;;;;;;;29.00;11.15;;;4.40;99.90;;;;;;5113445;28;20531;-75
2021/12/04 00:56:04;;;;;;;35.42;12.07;;;4.50;99.90;;;;;;5113381;28;20055;-75
2021/12/04 00:58:30;;;;;;;34.30;12.10;;;4.40;99.90;;;;;;5078119;28;20047;-75
2021/12/04 01:00:56;;;;;;;29.70;11.05;;;4.50;99.90;;;;;;5113074;28;20051;-75
2021/12/04 01:03:22;;;;;;;33.30;12.63;;;4.50;99.90;;;;;;5113761;28;20050;-75
2021/12/04 01:05:48;;;;;;;30.15;11.52;;;4.40;99.90;;;;;;5113553;28;20048;-75
2021/12/04 01:08:14;;;;;;;32.88;11.48;;;4.40;99.90;;;;;;5113231;28;20105;-74
2021/12/04 01:10:40;;;;;;;31.30;12.07;;;4.40;99.90;;;;;;5078686;28;20083;-75
2021/12/04 01:13:10;;;;;;;34.08;12.25;;;4.40;99.90;;;;;;5094454;28;20140;-76
2021/12/04 01:15:46;;;;;;;37.33;12.63;;;4.50;99.90;;;;;;5096208;28;20058;-76
2021/12/04 01:18:12;;;;;;;31.95;11.95;;;4.40;99.90;;;;;;5095424;28;20130;-76
2021/12/04 01:20:39;;;;;;;33.20;12.65;;;4.40;99.90;;;;;;5113087;28;20126;-75
2021/12/04 01:23:06;;;;;;;35.05;12.90;;;4.40;99.90;;;;;;5113634;28;20077;-76
2021/12/04 01:25:31;;;;;;;32.08;12.88;;;4.50;99.90;;;;;;5095221;28;20363;-76
2021/12/04 01:27:57;;;;;;;35.05;13.30;;;4.40;99.90;;;;;;5094652;28;20127;-76
2021/12/04 01:30:23;;;;;;;36.42;14.20;;;4.40;99.90;;;;;;5078047;28;20048;-76
2021/12/04 01:32:49;;;;;;;36.08;12.52;;;4.40;99.90;;;;;;5078359;28;20147;-76
2021/12/04 01:35:15;;;;;;;34.63;12.93;;;4.40;99.90;;;;;;5112618;28;20060;-75
2021/12/04 01:37:40;;;;;;;37.08;13.48;;;4.40;99.90;;;;;;5112935;28;20043;-76
2021/12/04 01:40:07;;;;;;;34.25;11.68;;;4.40;99.90;;;;;;5095081;28;20133;-75
2021/12/04 01:42:35;;;;;;;34.72;13.57;;;4.40;99.90;;;;;;5112964;28;20047;-77
2021/12/04 01:45:02;;;;;;;33.65;12.20;;;4.40;99.90;;;;;;5095813;28;20093;-76
2021/12/04 01:47:28;;;;;;;35.67;14.75;;;4.40;99.90;;;;;;5117035;28;20157;-75
2021/12/04 01:49:55;;;;;;;37.83;13.50;;;4.40;99.90;;;;;;5115549;28;20143;-76
2021/12/04 01:52:21;;;;;;;33.63;12.52;;;4.40;99.90;;;;;;5114155;28;20044;-75
2021/12/04 01:54:47;;;;;;;34.65;12.85;;;4.50;99.90;;;;;;5113998;28;20408;-76
2021/12/04 01:57:15;;;;;;;32.03;12.88;;;4.40;99.90;;;;;;5113066;28;20098;-76
2021/12/04 01:59:42;;;;;;;35.58;12.80;;;4.40;99.90;;;;;;5095246;28;20081;-76
2021/12/04 02:02:07;;;;;;;29.20;11.30;;;4.40;99.90;;;;;;5113400;28;20459;-77
2021/12/04 02:04:33;;;;;;;30.88;11.38;;;4.40;99.90;;;;;;5095207;28;20085;-76
2021/12/04 02:07:04;;;;;;;31.58;11.57;;;4.50;99.90;;;;;;5113624;28;20040;-76
2021/12/04 02:09:33;;;;;;;28.35;11.23;;;4.40;99.90;;;;;;5113807;28;20040;-75
2021/12/04 02:12:03;;;;;;;26.60;10.48;;;4.40;99.90;;;;;;5112670;28;20055;-76
2021/12/04 02:14:29;;;;;;;29.10;11.90;;;4.40;99.90;;;;;;5095195;28;20036;-75
2021/12/04 02:16:55;;;;;;;26.55;10.65;;;4.40;99.90;;;;;;5094942;28;20180;-75
2021/12/04 02:19:21;;;;;;;26.08;10.73;;;4.40;99.90;;;;;;5094724;28;20162;-75
2021/12/04 02:21:46;;;;;;;24.55;9.93;;;4.50;99.90;;;;;;5078414;28;20040;-76
2021/12/04 02:24:12;;;;;;;27.65;10.75;;;4.40;99.90;;;;;;5112751;28;20036;-74
2021/12/04 02:26:38;;;;;;;25.05;9.65;;;4.40;99.90;;;;;;5095215;28;20054;-76
2021/12/04 02:29:04;;;;;;;24.52;10.05;;;4.40;99.90;;;;;;5112741;28;20044;-75
2021/12/04 02:31:30;;;;;;;23.92;9.35;;;4.40;99.90;;;;;;5114151;28;20060;-75
2021/12/04 02:33:55;;;;;;;25.55;9.45;;;4.40;99.90;;;;;;5097989;28;20104;-76
2021/12/04 02:36:21;;;;;;;22.30;9.00;;;4.40;99.90;;;;;;5113261;28;20198;-74
2021/12/04 02:38:51;;;;;;;21.65;8.65;;;4.40;99.90;;;;;;5095295;28;20043;-75
2021/12/04 02:41:21;;;;;;;22.15;9.30;;;4.40;99.90;;;;;;5095312;28;20048;-75
2021/12/04 02:43:48;;;;;;;21.48;9.38;;;4.30;99.90;;;;;;5112522;28;20040;-75
2021/12/04 02:46:15;;;;;;;19.38;7.88;;;4.40;99.90;;;;;;5114631;28;20126;-75
2021/12/04 02:48:42;;;;;;;;;;;4.40;99.90;;;;;;5099218;28;20048;-76
2021/12/04 02:51:08;;;;;;;22.23;7.13;;;4.30;99.90;;;;;;5116989;28;19915;-75
2021/12/04 02:53:34;;;;;;;20.50;8.23;;;4.40;99.90;;;;;;5081926;28;20066;-75
2021/12/04 02:56:00;;;;;;;19.58;7.82;;;4.30;99.90;;;;;;5098382;28;20396;-76
2021/12/04 02:58:26;;;;;;;18.73;7.57;;;4.30;99.90;;;;;;5116290;28;20071;-75
2021/12/04 03:00:51;;;;;;;22.67;7.40;;;4.30;99.90;;;;;;5098828;28;20048;-75
2021/12/04 03:03:19;;;;;;;19.85;7.28;;;4.30;99.90;;;;;;5117470;28;20467;-74
2021/12/04 03:05:49;;;;;;;19.27;7.88;;;4.40;99.90;;;;;;5119269;28;20047;-76
2021/12/04 03:08:15;;;;;;;19.75;7.20;;;4.30;99.90;;;;;;5117642;28;20126;-75
2021/12/04 03:10:41;;;;;;;21.07;8.63;;;4.40;99.90;;;;;;5098413;28;20082;-74
2021/12/04 03:13:10;;;;;;;18.83;7.55;;;4.30;99.90;;;;;;5097549;28;20083;-75
2021/12/04 03:15:43;;;;;;;18.75;7.80;;;4.30;99.90;;;;;;5117249;28;20093;-75
2021/12/04 03:18:09;;;;;;;19.13;6.90;;;4.40;99.90;;;;;;5118122;28;20071;-75
2021/12/04 03:20:41;;;;;;;21.20;7.80;;;4.30;99.90;;;;;;5099682;28;20103;-75
2021/12/04 03:23:15;;;;;;;19.13;7.45;;;4.30;99.90;;;;;;5121705;28;20074;-74
2021/12/04 03:25:44;;;;;;;22.30;8.27;;;4.30;99.90;;;;;;5125330;28;20097;-76
2021/12/04 03:28:12;;;;;;;21.70;7.95;;;4.30;99.90;;;;;;5126852;28;20512;-76
2021/12/04 03:31:28;;;;;;;16.65;7.63;;;4.30;99.90;;;;;;5121576;28;20043;-76
2021/12/04 03:41:47;;;;;;;17.13;6.95;;;4.40;99.90;;;;;;5126372;28;20087;-76
2021/12/04 03:44:13;;;;;;;18.73;7.05;;;4.30;99.90;;;;;;5128570;28;20066;-75
2021/12/04 03:46:39;;;;;;;20.58;7.78;;;4.40;99.90;;;;;;5132396;28;20043;-75
2021/12/04 03:49:04;;;;;;;18.17;7.45;;;4.40;99.90;;;;;;5098062;28;20059;-76
2021/12/04 03:51:30;;;;;;;21.83;7.22;;;4.40;99.90;;;;;;5128335;28;20099;-77
2021/12/04 03:53:56;;;;;;;16.60;6.65;;;4.40;99.90;;;;;;5126277;28;20047;-76
2021/12/04 03:56:23;;;;;;;18.15;6.85;;;4.40;99.90;;;;;;5107780;28;20089;-75
2021/12/04 03:58:49;;;;;;;18.42;7.30;;;4.40;99.90;;;;;;5124517;28;20044;-77
2021/12/04 04:01:15;;;;;;;18.63;7.03;;;4.40;99.90;;;;;;5127748;28;20044;-76
2021/12/04 04:03:41;;;;;;;18.20;7.35;;;4.40;99.90;;;;;;5121605;28;20078;-75
2021/12/04 04:06:06;;;;;;;18.08;7.28;;;4.40;99.90;;;;;;5118128;28;20043;-76
2021/12/04 04:08:32;;;;;;;15.70;6.47;;;4.40;99.90;;;;;;5116941;28;20047;-77
2021/12/04 04:10:58;;;;;;;18.92;8.05;;;4.40;99.90;;;;;;5097859;28;20480;-76
2021/12/04 04:13:24;;;;;;;19.42;7.45;;;4.40;99.90;;;;;;5116341;28;20086;-77
2021/12/04 04:15:50;;;;;;;18.65;7.18;;;4.40;99.90;;;;;;5115083;28;20484;-75
2021/12/04 04:18:16;;;;;;;18.50;7.25;;;4.40;99.90;;;;;;5080345;28;20047;-75
2021/12/04 04:20:42;;;;;;;15.57;6.30;;;4.30;99.90;;;;;;5114986;28;20494;-75
2021/12/04 04:23:08;;;;;;;18.30;6.40;;;4.30;99.90;;;;;;5096476;28;20056;-76
2021/12/04 04:25:33;;;;;;;20.63;7.60;;;4.40;99.90;;;;;;5117057;28;20043;-75
2021/12/04 04:27:59;;;;;;;17.55;6.85;;;4.40;99.90;;;;;;5115307;28;20075;-75
2021/12/04 04:30:25;;;;;;;18.45;7.53;;;4.40;99.90;;;;;;5114777;28;20126;-75
2021/12/04 04:32:52;;;;;;;18.75;7.60;;;4.40;99.90;;;;;;5115170;28;20065;-75
2021/12/04 04:35:23;;;;;;;23.48;7.60;;;4.40;99.90;;;;;;5114854;28;20050;-76
2021/12/04 05:10:17;;;;;;;17.70;7.13;;;4.50;99.90;;;;;;5088381;28;20047;-75
2021/12/04 05:18:14;;;;;;;19.25;7.50;;;4.50;99.90;;;;;;5061109;28;20498;-75
2021/12/04 05:20:40;;;;;;;20.55;7.57;;;4.50;99.90;;;;;;5113235;28;20084;-75
2021/12/04 05:23:10;;;;;;;20.35;8.38;;;4.50;99.90;;;;;;5095118;28;20116;-75
2021/12/04 05:25:36;;;;;;;19.00;7.45;;;4.40;99.90;;;;;;5113372;28;20044;-75
2021/12/04 05:28:07;;;;;;;20.43;7.93;;;4.40;99.90;;;;;;5113334;28;20451;-75
2021/12/04 05:30:33;;;;;;;18.33;7.20;;;4.50;99.90;;;;;;5113795;28;20331;-75
2021/12/04 05:32:59;;;;;;;22.35;7.93;;;4.50;99.90;;;;;;5113185;28;20056;-75
2021/12/04 05:35:25;;;;;;;19.52;7.57;;;4.50;99.90;;;;;;5113032;28;20083;-75
2021/12/04 05:37:51;;;;;;;21.63;7.90;;;4.40;99.90;;;;;;5095491;28;20113;-75
2021/12/04 05:40:17;;;;;;;23.15;7.78;;;4.40;99.90;;;;;;5113185;28;20051;-75
2021/12/04 05:42:44;;;;;;;22.17;8.70;;;4.40;99.90;;;;;;5112688;28;20043;-74
2021/12/04 05:45:18;;;;;;;;;;;4.40;99.90;;;;;;5113705;28;20043;-75
2021/12/04 05:50:55;;;;;;;21.38;7.35;;;4.40;99.90;;;;;;5080959;28;20108;-76
2021/12/04 05:53:24;;;;;;;22.08;8.05;;;4.40;99.90;;;;;;5094996;28;20400;-75
2021/12/04 05:58:21;;;;;;;22.85;7.85;;;4.40;99.90;;;;;;5113069;28;20108;-75
2021/12/04 06:00:46;;;;;;;20.83;7.72;;;4.40;99.90;;;;;;5112781;28;20044;-74
2021/12/04 06:03:12;;;;;;;26.70;8.45;;;4.40;99.90;;;;;;5112648;28;20424;-75
2021/12/04 06:05:38;;;;;;;24.73;8.23;;;4.40;99.90;;;;;;5112218;28;20044;-75
2021/12/04 06:08:04;;;;;;;21.10;7.93;;;4.50;99.90;;;;;;5112900;28;20047;-75
2021/12/04 06:10:30;;;;;;;21.20;7.68;;;4.40;99.90;;;;;;5094538;28;20044;-75
2021/12/04 06:12:56;;;;;;;26.17;8.82;;;4.40;99.90;;;;;;5112524;28;20093;-75
2021/12/04 06:15:21;;;;;;;27.60;8.70;;;4.40;99.90;;;;;;5112867;28;20035;-76
2021/12/04 06:17:50;;;;;;;28.63;9.40;;;4.40;99.90;;;;;;5112790;28;20040;-75
2021/12/04 06:23:00;;;;;;;26.95;8.55;;;4.40;99.90;;;;;;5117079;28;20052;-76
2021/12/04 06:25:27;;;;;;;30.35;8.90;;;4.40;99.90;;;;;;5081619;28;20056;-75
2021/12/04 06:27:54;;;;;;;26.05;8.35;;;4.30;99.90;;;;;;5081651;28;20160;-75
2021/12/04 06:30:21;;;;;;;26.55;9.38;;;4.40;99.90;;;;;;5116550;28;20051;-76
2021/12/04 06:32:48;;;;;;;25.30;8.77;;;4.40;99.90;;;;;;5116891;28;20075;-76
2021/12/04 06:35:16;;;;;;;24.83;8.52;;;4.40;99.90;;;;;;5117018;28;20051;-76
2021/12/04 06:37:42;;;;;;;27.27;9.45;;;4.40;99.90;;;;;;5117000;28;20106;-76
2021/12/04 06:40:12;;;;;;;27.48;9.80;;;4.40;99.90;;;;;;5098152;28;20448;-76
2021/12/04 06:42:38;;;;;;;27.15;8.60;;;4.40;99.90;;;;;;5098481;28;20147;-75
2021/12/04 06:45:06;;;;;;;25.73;8.87;;;4.40;99.90;;;;;;5098051;28;20096;-76
2021/12/04 06:47:32;;;;;;;25.17;9.07;;;4.40;99.90;;;;;;5097957;28;20052;-77
2021/12/04 06:50:05;;;;;;;22.88;8.50;;;4.40;99.90;;;;;;5098616;28;20040;-76
2021/12/04 06:52:31;;;;;;;27.23;8.70;;;4.40;99.90;;;;;;5099610;28;20130;-77
2021/12/04 06:54:59;;;;;;;23.15;8.30;;;4.40;99.90;;;;;;5116554;28;20115;-75
2021/12/04 06:57:27;;;;;;;24.48;8.55;;;4.40;99.90;;;;;;5098289;28;20114;-76
2021/12/04 06:59:55;;;;;;;24.70;9.07;;;4.40;99.90;;;;;;5097757;28;20236;-76
2021/12/04 07:02:20;;;;;;;28.77;9.75;;;4.40;99.90;;;;;;5116468;28;20054;-75
2021/12/04 07:04:46;;;;;;;27.50;9.35;;;4.40;99.90;;;;;;5098073;28;20048;-75
2021/12/04 07:07:13;;;;;;;30.10;10.13;;;4.40;99.90;;;;;;5116173;28;20151;-75
2021/12/04 07:09:40;;;;;;;28.75;10.93;;;4.40;99.90;;;;;;5097921;28;20113;-75
2021/12/04 07:12:07;;;;;;;28.45;9.43;;;4.40;99.90;;;;;;5115923;28;20036;-76
2021/12/04 07:14:33;;;;;;;29.95;10.88;;;4.40;99.90;;;;;;5115818;28;20039;-75
2021/12/04 07:17:03;;;;;;;30.65;10.38;;;4.40;99.90;;;;;;5115791;28;20042;-76
2021/12/04 07:19:31;;;;;;;34.95;11.70;;;4.40;99.90;;;;;;5116038;28;20062;-76
2021/12/04 07:21:57;;;;;;;35.78;11.82;;;4.40;99.90;;;;;;5115734;28;20120;-75
2021/12/04 07:24:23;;;;;;;36.88;12.80;;;4.40;99.90;;;;;;5097890;28;20039;-75
2021/12/04 07:26:48;;;;;;;38.10;12.20;;;4.40;99.90;;;;;;5097245;28;20046;-76
2021/12/04 07:29:14;;;;;;;33.42;11.73;;;4.40;99.90;;;;;;5097032;28;20053;-75
2021/12/04 07:31:40;;;;;;;33.50;10.95;;;4.40;99.90;;;;;;5115146;28;20086;-73
2021/12/04 07:34:07;;;;;;;37.53;11.70;;;4.40;99.90;;;;;;5117217;28;20048;-75
2021/12/04 07:36:33;;;;;;;37.78;11.77;;;4.40;99.90;;;;;;5123465;28;20067;-75
2021/12/04 07:38:59;;;;;;;44.20;13.57;;;4.40;99.90;;;;;;5127866;28;20044;-74
2021/12/04 07:41:27;;;;;;;43.27;13.60;;;4.40;99.90;;;;;;5101546;28;20134;-75
2021/12/04 07:43:53;;;;;;;37.55;13.57;;;4.50;99.90;;;;;;5115360;28;20146;-74
2021/12/04 07:46:19;;;;;;;37.35;12.07;;;4.50;99.90;;;;;;5115504;28;20044;-74
2021/12/04 07:48:45;;;;;;;35.63;12.50;;;4.50;99.90;;;;;;5116549;28;20452;-74
2021/12/04 07:51:12;;;;;;;35.78;12.48;;;4.50;99.90;;;;;;5115380;28;20048;-75
2021/12/04 07:53:38;;;;;;;36.42;12.25;;;4.50;99.90;;;;;;5115243;28;20044;-75
2021/12/04 07:56:04;;;;;;;39.78;13.05;;;4.50;99.90;;;;;;5115246;28;20361;-75
2021/12/04 07:58:30;;;;;;;34.63;11.52;;;4.50;99.90;;;;;;5096342;28;20140;-73
2021/12/04 08:00:57;;;;;;;;;;;4.50;99.90;;;;;;5096965;28;20055;-74
2021/12/04 08:03:23;;;;;;;35.60;11.93;;;4.50;99.90;;;;;;5115333;28;19939;-75
2021/12/04 08:05:50;;;;;;;32.20;11.25;;;4.50;99.90;;;;;;5097006;28;20043;-77
2021/12/04 08:08:16;;;;;;;;;;;4.50;99.90;;;;;;5099235;28;20046;-76
2021/12/04 08:10:41;;;;;;;43.42;12.27;;;4.50;99.90;;;;;;5098956;28;19919;-73
2021/12/04 08:13:07;;;;;;;38.90;12.85;;;4.50;99.90;;;;;;5116013;28;20051;-75
2021/12/04 08:15:36;;;;;;;43.95;14.20;;;4.60;99.90;;;;;;5082474;28;20075;-74
2021/12/04 08:18:07;;;;;;;35.88;12.95;;;4.60;99.90;;;;;;5117177;28;20086;-75
2021/12/04 08:20:33;;;;;;;41.78;13.15;;;4.60;99.90;;;;;;5098227;28;20047;-74
2021/12/04 08:22:58;;;;;;;43.90;13.40;;;4.60;99.90;;;;;;5115725;28;20485;-76
2021/12/04 08:25:25;;;;;;;44.45;13.65;;;4.60;99.90;;;;;;5103789;28;20134;-76
2021/12/04 08:27:52;;;;;;;46.97;13.18;;;4.60;99.90;;;;;;5105698;28;20047;-76
2021/12/04 08:30:22;;;;;;;50.13;14.40;;;4.60;99.90;;;;;;5124685;28;20104;-74
2021/12/04 08:32:49;;;;;;;40.42;12.68;;;4.60;99.90;;;;;;5124714;28;20043;-75
2021/12/04 08:35:18;;;;;;;38.90;12.32;;;4.70;99.90;;;;;;5086856;28;20032;-77
2021/12/04 08:37:44;;;;;;;40.88;13.50;;;4.70;99.90;;;;;;5120340;28;20051;-74
2021/12/04 08:40:14;;;;;;;42.03;13.73;;;4.70;99.90;;;;;;5119768;28;20036;-76
2021/12/04 08:42:44;;;;;;;36.08;11.60;;;4.70;99.90;;;;;;5101141;28;20048;-73
2021/12/04 08:45:11;;;;;;;35.28;11.25;;;4.70;99.90;;;;;;5116890;28;20059;-74
2021/12/04 08:47:38;;;;;;;;;;;4.80;99.90;;;;;;5117262;28;20047;-75
2021/12/04 08:50:09;;;;;;;40.45;13.35;;;4.70;99.90;;;;;;5115789;28;19970;-74
2021/12/04 08:52:36;;;;;;;47.58;13.43;;;4.70;99.90;;;;;;5116055;28;20487;-73
2021/12/04 08:55:03;;;;;;;45.67;13.15;;;4.70;99.90;;;;;;5116493;28;20073;-74
2021/12/04 08:57:31;;;;;;;39.95;12.18;;;4.70;99.90;;;;;;5096460;28;20058;-74
2021/12/04 08:59:57;;;;;;;51.63;13.80;;;4.80;99.90;;;;;;5115743;28;20052;-75
2021/12/04 09:02:23;;;;;;;45.85;13.15;;;4.80;99.90;;;;;;5066406;28;20076;-75
2021/12/04 09:04:49;;;;;;;48.28;14.10;;;4.80;99.90;;;;;;5101445;28;20082;-74
2021/12/04 09:07:18;;;;;;;53.00;14.03;;;4.80;99.90;;;;;;5119656;28;20130;-73
2021/12/04 09:09:45;;;;;;;50.83;14.20;;;4.80;99.90;;;;;;5120402;28;20036;-74
2021/12/04 09:12:12;;;;;;;55.33;16.80;;;4.80;99.90;;;;;;5120340;28;20044;-74
2021/12/04 09:14:39;;;;;;;57.35;14.82;;;4.80;99.90;;;;;;5118995;28;20156;-74
2021/12/04 09:17:08;;;;;;;54.63;14.45;;;4.90;99.90;;;;;;5098834;28;20044;-74
2021/12/04 09:19:35;;;;;;;47.38;14.63;;;4.90;99.90;;;;;;5118901;28;20087;-73
2021/12/04 09:22:05;;;;;;;51.55;15.07;;;4.90;99.90;;;;;;5079817;28;20036;-74
2021/12/04 09:24:39;;;;;;;49.80;13.82;;;4.90;99.90;;;;;;5095560;28;20136;-74
2021/12/04 09:27:18;;;;;;;51.13;13.48;;;4.90;99.90;;;;;;5113494;28;20078;-74
2021/12/04 09:59:10;;;;;;;51.08;13.65;;;5.00;99.90;;;;;;5115472;28;20433;-75
2021/12/04 10:18:33;;;;;;;58.20;15.43;;;5.10;99.90;;;;;;5113180;28;20051;-74
2021/12/04 10:35:15;;;;;;;50.47;13.20;;;5.30;99.90;;;;;;5130208;28;20068;-74
2021/12/04 10:37:47;;;;;;;60.38;13.82;;;5.40;99.90;;;;;;5123362;28;20052;-74
2021/12/04 10:40:13;;;;;;;45.10;11.60;;;5.40;99.90;;;;;;5123359;28;20036;-74
2021/12/04 10:42:48;;;;;;;54.38;12.18;;;5.40;99.90;;;;;;5102825;28;20071;-74
2021/12/04 10:45:14;;;;;;;65.18;15.45;;;5.40;99.90;;;;;;5121321;28;20146;-75
2021/12/04 10:47:51;;;;;;;49.03;12.60;;;5.40;99.90;;;;;;5121126;28;20058;-76
2021/12/04 10:53:00;;;;;;;68.07;15.40;;;5.40;99.90;;;;;;5123273;28;20112;-77
2021/12/04 10:55:39;;;;;;;67.03;15.98;;;5.30;99.90;;;;;;5122962;28;20158;-76
2021/12/04 11:00:52;;;;;;;67.43;17.05;;;5.30;99.90;;;;;;5118186;28;20083;-77
2021/12/04 11:03:31;;;;;;;61.05;15.50;;;5.40;99.90;;;;;;5118345;28;20051;-76
2021/12/04 11:25:12;;;;;;;68.90;17.57;;;5.20;99.90;;;;;;5127093;28;20063;-75
2021/12/04 11:41:34;;;;;;;92.22;22.23;;;5.30;99.90;;;;;;5105173;28;20090;-74
2021/12/04 11:44:05;;;;;;;108.88;23.55;;;5.20;99.90;;;;;;5095680;28;20055;-75
2021/12/04 11:46:45;;;;;;;85.82;20.13;;;5.20;99.90;;;;;;5107719;28;20055;-73
2021/12/04 11:49:15;;;;;;;80.68;20.90;;;5.20;99.90;;;;;;5102084;28;20058;-74
2021/12/04 11:51:52;;;;;;;84.60;21.27;;;5.30;99.90;;;;;;5121101;28;20047;-74
2021/12/04 11:54:17;;;;;;;;;;;5.30;99.90;;;;;;5120840;28;20055;-73
2021/12/04 11:56:44;;;;;;;94.65;22.15;;;5.50;99.90;;;;;;5120163;28;19941;-74
2021/12/04 11:59:10;;;;;;;101.47;23.48;;;5.40;99.90;;;;;;5119731;28;20192;-76
2021/12/04 12:01:38;;;;;;;106.43;25.48;;;5.40;99.90;;;;;;5102724;28;20491;-76
2021/12/04 12:04:09;;;;;;;110.68;25.60;;;5.40;99.90;;;;;;5101822;28;20118;-74
2021/12/04 12:06:39;;;;;;;99.30;25.15;;;5.40;99.90;;;;;;5119346;28;20055;-75
2021/12/04 12:09:14;;;;;;;104.82;24.63;;;5.50;99.90;;;;;;5118528;28;20108;-73
2021/12/04 12:12:03;;;;;;;114.25;25.83;;;5.50;99.90;;;;;;5119573;28;20040;-75
2021/12/04 12:14:48;;;;;;;104.72;23.15;;;5.60;99.90;;;;;;5119625;28;20040;-75
2021/12/04 12:17:31;;;;;;;102.82;24.23;;;5.70;99.90;;;;;;5106510;28;20058;-73
2021/12/04 12:19:57;;;;;;;98.53;24.05;;;5.70;99.90;;;;;;5121575;28;20035;-74
2021/12/04 12:22:39;;;;;;;86.07;21.75;;;5.70;99.90;;;;;;5103745;28;20059;-74
2021/12/04 12:25:20;;;;;;;101.22;24.50;;;5.70;99.90;;;;;;5122933;28;20047;-75
2021/12/04 12:27:58;;;;;;;98.93;23.98;;;5.60;99.90;;;;;;5103454;28;20039;-74
2021/12/04 12:36:11;;;;;;;103.15;25.55;;;5.50;99.90;;;;;;5104557;28;20365;-77
2021/12/04 12:38:55;;;;;;;112.75;26.33;;;5.50;99.90;;;;;;5123258;28;20047;-75
2021/12/04 12:41:41;;;;;;;110.63;26.92;;;5.50;99.90;;;;;;5124003;28;20107;-74
2021/12/04 12:44:10;;;;;;;130.30;29.13;;;5.40;99.90;;;;;;5105725;28;20103;-74
2021/12/04 12:46:47;;;;;;;133.25;29.02;;;5.30;99.90;;;;;;5105630;28;20043;-75
2021/12/04 12:49:26;;;;;;;125.38;28.77;;;5.30;99.90;;;;;;5123561;28;20126;-76
2021/12/04 12:51:58;;;;;;;120.25;28.85;;;5.30;99.90;;;;;;5106721;28;20112;-76
2021/12/04 12:54:35;;;;;;;141.80;29.70;;;5.40;99.90;;;;;;5104094;28;20374;-75
2021/12/04 12:57:04;;;;;;;;;;;5.30;99.90;;;;;;5105416;28;20067;-77
2021/12/04 13:14:22;;;;;;;121.22;28.85;;;5.40;99.90;;;;;;5102851;28;20055;-75
2021/12/04 13:16:57;;;;;;;108.88;27.55;;;5.30;99.90;;;;;;5123938;28;20043;-75
2021/12/04 13:19:24;;;;;;;120.30;27.92;;;5.40;99.90;;;;;;5107558;28;20052;-75
2021/12/04 13:21:51;;;;;;;;;;;5.40;99.90;;;;;;5123999;28;20055;-74
2021/12/04 13:24:18;;;;;;;99.85;26.60;;;5.40;99.90;;;;;;5102605;28;20363;-76
2021/12/04 13:26:48;;;;;;;120.93;28.05;;;5.40;99.90;;;;;;5104791;28;20078;-75
2021/12/04 13:29:17;;;;;;;117.65;28.65;;;5.40;99.90;;;;;;5112853;28;20081;-76
2021/12/04 13:31:46;;;;;;;116.80;29.67;;;5.40;99.90;;;;;;5125417;28;20054;-76
2021/12/04 13:34:14;;;;;;;113.00;30.45;;;5.40;99.90;;;;;;5114619;28;20499;-76
2021/12/04 13:36:45;;;;;;;117.75;29.67;;;5.40;99.90;;;;;;5114070;28;20059;-76
2021/12/04 13:39:14;;;;;;;124.22;29.27;;;5.40;99.90;;;;;;5114275;28;20051;-76
2021/12/04 13:41:42;;;;;;;110.03;28.42;;;5.40;99.90;;;;;;5113425;28;20495;-75
2021/12/04 13:44:12;;;;;;;110.93;27.55;;;5.40;99.90;;;;;;5095815;28;20050;-76
2021/12/04 13:46:43;;;;;;;118.72;29.60;;;5.40;99.90;;;;;;5113713;28;20046;-75
2021/12/04 13:49:10;;;;;;;123.63;30.63;;;5.40;99.90;;;;;;5113573;28;20043;-75
2021/12/04 13:51:37;;;;;;;118.70;28.92;;;5.40;99.90;;;;;;5113832;28;20055;-75
2021/12/04 13:54:04;;;;;;;114.60;28.35;;;5.40;99.90;;;;;;5095382;28;20134;-76
2021/12/04 13:56:30;;;;;;;;;;;5.40;99.90;;;;;;5095738;28;20086;-75
2021/12/04 13:59:00;;;;;;;122.57;30.10;;;5.40;99.90;;;;;;5112540;28;19949;-75
2021/12/04 14:01:28;;;;;;;128.43;31.00;;;5.40;99.90;;;;;;5113521;28;20087;-75
2021/12/04 14:03:59;;;;;;;113.13;30.20;;;5.40;99.90;;;;;;5078160;28;20043;-77
2021/12/04 14:06:25;;;;;;;131.70;32.53;;;5.30;99.90;;;;;;5114187;28;20078;-76
2021/12/04 14:09:05;;;;;;;118.80;29.83;;;5.40;99.90;;;;;;5114186;28;20044;-76
2021/12/04 14:11:39;;;;;;;116.50;31.27;;;5.40;99.90;;;;;;5096529;28;20422;-77
2021/12/04 14:14:12;;;;;;;107.13;29.38;;;5.40;99.90;;;;;;5113231;28;20048;-76
2021/12/04 14:16:40;;;;;;;106.97;27.02;;;5.30;99.90;;;;;;5113769;28;20441;-75
2021/12/04 14:19:14;;;;;;;114.10;28.73;;;5.40;99.90;;;;;;5094769;28;20051;-75
2021/12/04 14:21:40;;;;;;;112.85;29.20;;;5.40;99.90;;;;;;5112958;28;20055;-75
2021/12/04 14:24:06;;;;;;;112.50;29.23;;;5.30;99.90;;;;;;5112581;28;20043;-76
2021/12/04 14:26:32;;;;;;;123.10;30.92;;;5.30;99.90;;;;;;5113329;28;20071;-76
2021/12/04 14:28:58;;;;;;;102.22;29.85;;;5.40;99.90;;;;;;5112604;28;20051;-76
2021/12/04 14:31:24;;;;;;;110.18;28.95;;;5.40;99.90;;;;;;5095254;28;20051;-76
2021/12/04 14:33:50;;;;;;;107.75;27.00;;;5.40;99.90;;;;;;5094046;28;20094;-75
2021/12/04 14:36:21;;;;;;;110.25;29.02;;;5.40;99.90;;;;;;5094548;28;20074;-76
2021/12/04 14:38:47;;;;;;;119.90;29.80;;;5.40;99.90;;;;;;5094980;28;20048;-77
2021/12/04 14:41:13;;;;;;;121.03;30.40;;;5.30;99.90;;;;;;5113366;28;20055;-75
2021/12/04 14:43:40;;;;;;;118.63;31.00;;;5.30;99.90;;;;;;5116674;28;20051;-75
2021/12/04 14:46:13;;;;;;;131.48;32.38;;;5.40;99.90;;;;;;5082109;28;20265;-76
2021/12/04 14:48:44;;;;;;;123.45;33.10;;;5.30;99.90;;;;;;5098840;28;20130;-77
2021/12/04 14:51:17;;;;;;;127.00;33.28;;;5.40;99.90;;;;;;5098784;28;20408;-76
2021/12/04 14:53:53;;;;;;;118.00;31.20;;;5.40;99.90;;;;;;5099134;28;20360;-76
2021/12/04 14:56:20;;;;;;;114.93;30.90;;;5.40;99.90;;;;;;5098999;28;20463;-76
2021/12/04 14:58:47;;;;;;;112.28;30.45;;;5.40;99.90;;;;;;5097714;28;20055;-75
2021/12/04 15:01:16;;;;;;;124.70;30.88;;;5.40;99.90;;;;;;5116721;28;20052;-76
2021/12/04 15:03:51;;;;;;;112.00;28.67;;;5.40;99.90;;;;;;5098654;28;20048;-76
2021/12/04 15:06:19;;;;;;;113.07;28.40;;;5.40;99.90;;;;;;5116756;28;20073;-76
2021/12/04 15:08:57;;;;;;;115.57;30.30;;;5.30;99.90;;;;;;5098650;28;20118;-76
2021/12/04 15:11:31;;;;;;;112.75;29.90;;;5.40;99.90;;;;;;5116117;28;20059;-76
2021/12/04 15:14:02;;;;;;;99.18;27.08;;;5.40;99.90;;;;;;5098215;28;20051;-76
2021/12/04 15:16:36;;;;;;;110.53;29.17;;;5.40;99.90;;;;;;5120622;28;20057;-77
2021/12/04 15:19:15;;;;;;;106.88;28.75;;;5.30;99.90;;;;;;5123283;28;20063;-77
2021/12/04 15:21:53;;;;;;;112.45;29.67;;;5.40;99.90;;;;;;5119828;28;20123;-78
2021/12/04 15:24:26;;;;;;;97.95;27.63;;;5.40;99.90;;;;;;5116525;28;20479;-79
2021/12/04 15:26:56;;;;;;;113.88;29.33;;;5.30;99.90;;;;;;5125133;28;20373;-78
2021/12/04 15:29:26;;;;;;;113.43;28.20;;;5.30;99.90;;;;;;5105673;28;20073;-77
2021/12/04 15:31:54;;;;;;;112.95;26.98;;;5.40;99.90;;;;;;5091079;28;20047;-77
2021/12/04 15:34:53;;;;;;;120.88;29.40;;;5.40;99.90;;;;;;5124410;28;20039;-76
2021/12/04 15:37:40;;;;;;;107.18;29.10;;;5.30;99.90;;;;;;5124378;28;20054;-76
2021/12/04 15:40:11;;;;;;;113.82;29.38;;;5.40;99.90;;;;;;5089089;28;20047;-77
2021/12/04 15:43:01;;;;;;;123.03;30.02;;;5.30;99.90;;;;;;5119883;28;20420;-77
2021/12/04 15:45:35;;;;;;;124.20;31.23;;;5.40;99.90;;;;;;5116003;28;20083;-77
2021/12/04 15:48:29;;;;;;;128.63;32.35;;;5.20;99.90;;;;;;5115536;28;20082;-76
2021/12/04 15:53:48;;;;;;;113.20;29.35;;;5.30;99.90;;;;;;5117635;28;20096;-76
2021/12/04 15:56:14;;;;;;;130.23;33.10;;;5.30;99.90;;;;;;5115247;28;20472;-75
2021/12/04 15:58:39;;;;;;;111.10;29.35;;;5.30;99.90;;;;;;5096938;28;20043;-77
2021/12/04 16:01:08;;;;;;;112.47;29.50;;;5.30;99.90;;;;;;5105010;28;20077;-78